sensor_id;sensor_type;location;lat;lon;timestamp;P1;durP1;ratioP1;P2;durP2;ratioP2
11228;SDS011;5671;47.936;8.716;2023-07-20T05:57:24;8.80;;;3.47;;
11228;SDS011;5671;47.936;8.716;2023-07-20T05:59:51;3.70;;;3.10;;
11228;SDS011;5671;47.936;8.716;2023-07-20T06:02:18;4.63;;;3.57;;
11228;SDS011;5671;47.936;8.716;2023-07-20T06:04:45;7.03;;;3.87;;
11228;SDS011;5671;47.936;8.716;2023-07-20T06:07:11;5.40;;;3.10;;
11228;SDS011;5671;47.936;8.716;2023-07-20T06:09:39;8.23;;;3.27;;
11228;SDS011;5671;47.936;8.716;2023-07-20T06:12:06;3.70;;;3.10;;
11228;SDS011;5671;47.936;8.716;2023-07-20T06:14:36;3.20;;;2.80;;
11228;SDS011;5671;47.936;8.716;2023-07-20T06:17:03;3.53;;;2.93;;
11228;SDS011;5671;47.936;8.716;2023-07-20T06:19:30;4.57;;;3.03;;
11228;SDS011;5671;47.936;8.716;2023-07-20T06:21:57;4.10;;;3.60;;
11228;SDS011;5671;47.936;8.716;2023-07-20T06:24:27;3.90;;;3.27;;
11228;SDS011;5671;47.936;8.716;2023-07-20T06:26:54;3.57;;;3.23;;
11228;SDS011;5671;47.936;8.716;2023-07-20T06:29:21;6.70;;;3.60;;
11228;SDS011;5671;47.936;8.716;2023-07-20T06:31:55;4.37;;;3.30;;
11228;SDS011;5671;47.936;8.716;2023-07-20T06:34:21;5.07;;;3.43;;
11228;SDS011;5671;47.936;8.716;2023-07-20T06:36:54;4.43;;;3.03;;
11228;SDS011;5671;47.936;8.716;2023-07-20T06:39:21;4.07;;;2.73;;
11228;SDS011;5671;47.936;8.716;2023-07-20T06:41:51;4.00;;;2.90;;
11228;SDS011;5671;47.936;8.716;2023-07-20T06:44:18;6.97;;;3.20;;
11228;SDS011;5671;47.936;8.716;2023-07-20T06:46:45;6.67;;;3.60;;
11228;SDS011;5671;47.936;8.716;2023-07-20T06:49:25;8.83;;;3.80;;
11228;SDS011;5671;47.936;8.716;2023-07-20T06:51:52;5.37;;;3.40;;
11228;SDS011;5671;47.936;8.716;2023-07-20T06:54:19;3.60;;;3.10;;
11228;SDS011;5671;47.936;8.716;2023-07-20T06:56:46;6.97;;;2.97;;
11228;SDS011;5671;47.936;8.716;2023-07-20T06:59:13;7.07;;;2.87;;
11228;SDS011;5671;47.936;8.716;2023-07-20T07:01:40;4.30;;;2.93;;
11228;SDS011;5671;47.936;8.716;2023-07-20T07:04:06;4.40;;;3.13;;
11228;SDS011;5671;47.936;8.716;2023-07-20T07:06:35;6.43;;;3.23;;
11228;SDS011;5671;47.936;8.716;2023-07-20T07:09:02;7.53;;;2.97;;
11228;SDS011;5671;47.936;8.716;2023-07-20T07:11:30;4.00;;;2.90;;
11228;SDS011;5671;47.936;8.716;2023-07-20T07:13:57;3.70;;;2.60;;
11228;SDS011;5671;47.936;8.716;2023-07-20T07:16:24;7.10;;;3.47;;
11228;SDS011;5671;47.936;8.716;2023-07-20T07:18:51;8.87;;;2.90;;
11228;SDS011;5671;47.936;8.716;2023-07-20T07:21:17;5.13;;;3.33;;
11228;SDS011;5671;47.936;8.716;2023-07-20T07:23:46;4.03;;;3.03;;
11228;SDS011;5671;47.936;8.716;2023-07-20T07:26:14;5.13;;;2.97;;
11228;SDS011;5671;47.936;8.716;2023-07-20T07:28:46;3.80;;;2.70;;
11228;SDS011;5671;47.936;8.716;2023-07-20T07:31:16;4.20;;;3.00;;
11228;SDS011;5671;47.936;8.716;2023-07-20T07:33:43;5.30;;;2.63;;
11228;SDS011;5671;47.936;8.716;2023-07-20T07:36:10;3.67;;;2.70;;
11228;SDS011;5671;47.936;8.716;2023-07-20T07:38:37;6.60;;;2.87;;
11228;SDS011;5671;47.936;8.716;2023-07-20T07:41:05;3.93;;;2.40;;
11228;SDS011;5671;47.936;8.716;2023-07-20T07:43:32;5.57;;;2.77;;
11228;SDS011;5671;47.936;8.716;2023-07-20T07:46:00;4.77;;;3.00;;
11228;SDS011;5671;47.936;8.716;2023-07-20T07:48:27;8.30;;;2.80;;
11228;SDS011;5671;47.936;8.716;2023-07-20T07:50:53;7.60;;;3.10;;
11228;SDS011;5671;47.936;8.716;2023-07-20T07:53:20;7.33;;;2.50;;
11228;SDS011;5671;47.936;8.716;2023-07-20T07:55:47;8.90;;;2.80;;
11228;SDS011;5671;47.936;8.716;2023-07-20T07:58:18;4.80;;;2.77;;
11228;SDS011;5671;47.936;8.716;2023-07-20T08:00:48;6.23;;;2.97;;
11228;SDS011;5671;47.936;8.716;2023-07-20T08:03:15;6.93;;;3.00;;
11228;SDS011;5671;47.936;8.716;2023-07-20T08:05:42;2.67;;;2.43;;
11228;SDS011;5671;47.936;8.716;2023-07-20T08:08:09;5.23;;;2.93;;
11228;SDS011;5671;47.936;8.716;2023-07-20T08:10:35;4.17;;;2.43;;
11228;SDS011;5671;47.936;8.716;2023-07-20T08:13:02;7.97;;;2.47;;
11228;SDS011;5671;47.936;8.716;2023-07-20T08:15:30;6.13;;;2.87;;
11228;SDS011;5671;47.936;8.716;2023-07-20T08:17:57;4.00;;;2.50;;
11228;SDS011;5671;47.936;8.716;2023-07-20T08:20:24;5.33;;;2.70;;
11228;SDS011;5671;47.936;8.716;2023-07-20T08:22:52;5.80;;;2.70;;
11228;SDS011;5671;47.936;8.716;2023-07-20T08:25:19;5.63;;;2.80;;
11228;SDS011;5671;47.936;8.716;2023-07-20T08:27:46;3.03;;;2.60;;
11228;SDS011;5671;47.936;8.716;2023-07-20T08:30:13;4.73;;;2.70;;
11228;SDS011;5671;47.936;8.716;2023-07-20T08:32:41;4.50;;;2.77;;
11228;SDS011;5671;47.936;8.716;2023-07-20T08:35:08;3.97;;;2.30;;
11228;SDS011;5671;47.936;8.716;2023-07-20T08:37:37;3.00;;;2.40;;
11228;SDS011;5671;47.936;8.716;2023-07-20T08:40:05;3.13;;;2.43;;
11228;SDS011;5671;47.936;8.716;2023-07-20T08:42:35;5.57;;;2.83;;
11228;SDS011;5671;47.936;8.716;2023-07-20T08:45:03;5.10;;;2.83;;
11228;SDS011;5671;47.936;8.716;2023-07-20T08:47:34;5.83;;;2.60;;
11228;SDS011;5671;47.936;8.716;2023-07-20T08:50:03;2.70;;;2.40;;
11228;SDS011;5671;47.936;8.716;2023-07-20T08:52:34;5.73;;;3.03;;
11228;SDS011;5671;47.936;8.716;2023-07-20T08:55:01;4.97;;;2.70;;
11228;SDS011;5671;47.936;8.716;2023-07-20T08:57:32;2.60;;;2.40;;
11228;SDS011;5671;47.936;8.716;2023-07-20T09:00:00;7.10;;;2.97;;
11228;SDS011;5671;47.936;8.716;2023-07-20T09:02:31;3.80;;;2.73;;
11228;SDS011;5671;47.936;8.716;2023-07-20T09:05:06;3.70;;;2.53;;
11228;SDS011;5671;47.936;8.716;2023-07-20T09:07:35;2.83;;;2.47;;
11228;SDS011;5671;47.936;8.716;2023-07-20T09:10:02;2.30;;;2.10;;
11228;SDS011;5671;47.936;8.716;2023-07-20T09:12:31;6.17;;;2.30;;
11228;SDS011;5671;47.936;8.716;2023-07-20T09:14:58;5.03;;;2.23;;
11228;SDS011;5671;47.936;8.716;2023-07-20T09:17:28;6.17;;;2.30;;
11228;SDS011;5671;47.936;8.716;2023-07-20T09:19:55;5.33;;;2.27;;
11228;SDS011;5671;47.936;8.716;2023-07-20T09:22:23;3.33;;;2.10;;
11228;SDS011;5671;47.936;8.716;2023-07-20T09:24:56;5.70;;;2.30;;
11228;SDS011;5671;47.936;8.716;2023-07-20T09:27:25;3.23;;;2.53;;
11228;SDS011;5671;47.936;8.716;2023-07-20T09:30:01;4.40;;;2.50;;
11228;SDS011;5671;47.936;8.716;2023-07-20T09:32:29;5.97;;;2.40;;
11228;SDS011;5671;47.936;8.716;2023-07-20T09:34:56;5.37;;;2.60;;
11228;SDS011;5671;47.936;8.716;2023-07-20T09:37:27;3.57;;;2.50;;
11228;SDS011;5671;47.936;8.716;2023-07-20T09:39:56;6.07;;;2.33;;
11228;SDS011;5671;47.936;8.716;2023-07-20T09:42:23;2.63;;;2.27;;
11228;SDS011;5671;47.936;8.716;2023-07-20T09:44:54;4.93;;;2.37;;
11228;SDS011;5671;47.936;8.716;2023-07-20T09:47:22;2.97;;;1.97;;
11228;SDS011;5671;47.936;8.716;2023-07-20T09:49:58;2.83;;;2.13;;
11228;SDS011;5671;47.936;8.716;2023-07-20T09:52:47;4.27;;;2.40;;
11228;SDS011;5671;47.936;8.716;2023-07-20T09:55:14;3.83;;;2.40;;
11228;SDS011;5671;47.936;8.716;2023-07-20T09:57:42;10.63;;;2.70;;
11228;SDS011;5671;47.936;8.716;2023-07-20T10:00:09;5.10;;;2.30;;
11228;SDS011;5671;47.936;8.716;2023-07-20T10:02:50;2.97;;;2.10;;
11228;SDS011;5671;47.936;8.716;2023-07-20T10:05:18;2.67;;;2.10;;
11228;SDS011;5671;47.936;8.716;2023-07-20T10:07:48;10.10;;;2.70;;
11228;SDS011;5671;47.936;8.716;2023-07-20T10:10:16;7.97;;;2.70;;
11228;SDS011;5671;47.936;8.716;2023-07-20T10:12:44;3.33;;;2.10;;
11228;SDS011;5671;47.936;8.716;2023-07-20T10:15:19;1.93;;;1.60;;
11228;SDS011;5671;47.936;8.716;2023-07-20T10:17:53;2.23;;;1.97;;
11228;SDS011;5671;47.936;8.716;2023-07-20T10:20:26;2.90;;;1.80;;
11228;SDS011;5671;47.936;8.716;2023-07-20T10:22:55;3.00;;;2.27;;
11228;SDS011;5671;47.936;8.716;2023-07-20T10:25:23;4.73;;;2.10;;
11228;SDS011;5671;47.936;8.716;2023-07-20T10:27:50;2.77;;;2.10;;
11228;SDS011;5671;47.936;8.716;2023-07-20T10:30:18;3.03;;;2.20;;
11228;SDS011;5671;47.936;8.716;2023-07-20T10:32:45;3.73;;;2.30;;
11228;SDS011;5671;47.936;8.716;2023-07-20T10:35:13;2.90;;;1.90;;
11228;SDS011;5671;47.936;8.716;2023-07-20T10:37:48;6.13;;;2.20;;
11228;SDS011;5671;47.936;8.716;2023-07-20T10:40:30;5.70;;;2.07;;
11228;SDS011;5671;47.936;8.716;2023-07-20T10:43:00;3.93;;;1.90;;
11228;SDS011;5671;47.936;8.716;2023-07-20T10:45:35;3.10;;;2.20;;
11228;SDS011;5671;47.936;8.716;2023-07-20T10:48:05;3.33;;;2.00;;
11228;SDS011;5671;47.936;8.716;2023-07-20T10:50:42;4.33;;;2.33;;
11228;SDS011;5671;47.936;8.716;2023-07-20T10:53:10;2.97;;;2.07;;
11228;SDS011;5671;47.936;8.716;2023-07-20T10:55:39;4.77;;;2.10;;
11228;SDS011;5671;47.936;8.716;2023-07-20T10:58:07;4.00;;;2.30;;
11228;SDS011;5671;47.936;8.716;2023-07-20T11:00:38;2.43;;;1.90;;
11228;SDS011;5671;47.936;8.716;2023-07-20T11:03:34;2.87;;;1.97;;
11228;SDS011;5671;47.936;8.716;2023-07-20T11:09:15;2.80;;;1.60;;
11228;SDS011;5671;47.936;8.716;2023-07-20T11:11:44;2.23;;;1.60;;
11228;SDS011;5671;47.936;8.716;2023-07-20T11:14:20;4.43;;;2.00;;
11228;SDS011;5671;47.936;8.716;2023-07-20T11:16:48;2.47;;;1.97;;
11228;SDS011;5671;47.936;8.716;2023-07-20T11:19:16;2.13;;;1.93;;
11228;SDS011;5671;47.936;8.716;2023-07-20T11:21:45;4.53;;;1.90;;
11228;SDS011;5671;47.936;8.716;2023-07-20T11:24:13;2.67;;;2.00;;
11228;SDS011;5671;47.936;8.716;2023-07-20T11:26:45;2.93;;;2.00;;
11228;SDS011;5671;47.936;8.716;2023-07-20T11:29:12;2.77;;;1.90;;
11228;SDS011;5671;47.936;8.716;2023-07-20T11:31:40;1.77;;;1.60;;
11228;SDS011;5671;47.936;8.716;2023-07-20T11:34:09;4.40;;;2.00;;
11228;SDS011;5671;47.936;8.716;2023-07-20T11:36:38;2.10;;;1.70;;
11228;SDS011;5671;47.936;8.716;2023-07-20T11:39:06;4.67;;;2.20;;
11228;SDS011;5671;47.936;8.716;2023-07-20T11:41:34;2.67;;;1.70;;
11228;SDS011;5671;47.936;8.716;2023-07-20T11:44:02;3.50;;;1.60;;
11228;SDS011;5671;47.936;8.716;2023-07-20T11:46:29;2.97;;;1.97;;
11228;SDS011;5671;47.936;8.716;2023-07-20T11:48:57;4.17;;;1.93;;
11228;SDS011;5671;47.936;8.716;2023-07-20T11:51:25;2.80;;;1.80;;
11228;SDS011;5671;47.936;8.716;2023-07-20T11:53:53;8.13;;;1.93;;
11228;SDS011;5671;47.936;8.716;2023-07-20T11:56:22;4.40;;;1.93;;
11228;SDS011;5671;47.936;8.716;2023-07-20T11:58:49;2.87;;;1.70;;
11228;SDS011;5671;47.936;8.716;2023-07-20T12:01:18;2.97;;;1.87;;
11228;SDS011;5671;47.936;8.716;2023-07-20T12:03:45;2.93;;;1.90;;
11228;SDS011;5671;47.936;8.716;2023-07-20T12:06:15;6.20;;;2.10;;
11228;SDS011;5671;47.936;8.716;2023-07-20T12:08:42;4.40;;;1.80;;
11228;SDS011;5671;47.936;8.716;2023-07-20T12:11:10;2.43;;;1.87;;
11228;SDS011;5671;47.936;8.716;2023-07-20T12:13:37;3.17;;;2.13;;
11228;SDS011;5671;47.936;8.716;2023-07-20T12:16:11;4.47;;;2.00;;
11228;SDS011;5671;47.936;8.716;2023-07-20T12:18:41;3.10;;;1.67;;
11228;SDS011;5671;47.936;8.716;2023-07-20T12:21:09;2.23;;;2.00;;
11228;SDS011;5671;47.936;8.716;2023-07-20T12:23:40;2.60;;;2.07;;
11228;SDS011;5671;47.936;8.716;2023-07-20T12:26:08;3.00;;;1.80;;
11228;SDS011;5671;47.936;8.716;2023-07-20T12:28:38;3.87;;;1.70;;
11228;SDS011;5671;47.936;8.716;2023-07-20T12:31:07;4.13;;;1.97;;
11228;SDS011;5671;47.936;8.716;2023-07-20T12:33:34;1.90;;;1.67;;
11228;SDS011;5671;47.936;8.716;2023-07-20T12:36:03;2.90;;;1.60;;
11228;SDS011;5671;47.936;8.716;2023-07-20T12:38:31;1.90;;;1.80;;
11228;SDS011;5671;47.936;8.716;2023-07-20T12:40:58;2.60;;;1.83;;
11228;SDS011;5671;47.936;8.716;2023-07-20T12:43:26;2.00;;;1.50;;
11228;SDS011;5671;47.936;8.716;2023-07-20T12:45:54;2.20;;;2.00;;
11228;SDS011;5671;47.936;8.716;2023-07-20T12:48:21;5.27;;;1.80;;
11228;SDS011;5671;47.936;8.716;2023-07-20T12:50:48;3.30;;;1.97;;
11228;SDS011;5671;47.936;8.716;2023-07-20T12:53:16;1.80;;;1.60;;
11228;SDS011;5671;47.936;8.716;2023-07-20T12:55:43;5.30;;;1.93;;
11228;SDS011;5671;47.936;8.716;2023-07-20T12:58:11;4.87;;;1.90;;
11228;SDS011;5671;47.936;8.716;2023-07-20T13:00:38;4.20;;;1.70;;
11228;SDS011;5671;47.936;8.716;2023-07-20T13:03:06;1.90;;;1.60;;
11228;SDS011;5671;47.936;8.716;2023-07-20T13:05:33;4.03;;;1.90;;
11228;SDS011;5671;47.936;8.716;2023-07-20T13:08:01;4.13;;;1.83;;
11228;SDS011;5671;47.936;8.716;2023-07-20T13:10:29;1.90;;;1.70;;
11228;SDS011;5671;47.936;8.716;2023-07-20T13:12:56;7.93;;;2.27;;
11228;SDS011;5671;47.936;8.716;2023-07-20T13:15:24;2.47;;;1.70;;
11228;SDS011;5671;47.936;8.716;2023-07-20T13:17:56;2.20;;;1.90;;
11228;SDS011;5671;47.936;8.716;2023-07-20T13:20:22;3.67;;;1.63;;
11228;SDS011;5671;47.936;8.716;2023-07-20T13:22:49;1.83;;;1.63;;
11228;SDS011;5671;47.936;8.716;2023-07-20T13:25:16;3.27;;;1.50;;
11228;SDS011;5671;47.936;8.716;2023-07-20T13:27:45;4.17;;;1.60;;
11228;SDS011;5671;47.936;8.716;2023-07-20T13:30:12;47.27;;;4.03;;
11228;SDS011;5671;47.936;8.716;2023-07-20T13:32:41;2.20;;;1.70;;
11228;SDS011;5671;47.936;8.716;2023-07-20T13:35:08;2.03;;;1.67;;
11228;SDS011;5671;47.936;8.716;2023-07-20T13:37:35;3.27;;;1.50;;
11228;SDS011;5671;47.936;8.716;2023-07-20T13:40:02;3.33;;;1.73;;
11228;SDS011;5671;47.936;8.716;2023-07-20T13:42:31;2.10;;;1.80;;
11228;SDS011;5671;47.936;8.716;2023-07-20T13:44:59;2.90;;;2.20;;
11228;SDS011;5671;47.936;8.716;2023-07-20T13:47:26;6.13;;;1.90;;
11228;SDS011;5671;47.936;8.716;2023-07-20T13:49:53;4.53;;;2.00;;
11228;SDS011;5671;47.936;8.716;2023-07-20T13:52:21;1.83;;;1.70;;
11228;SDS011;5671;47.936;8.716;2023-07-20T13:54:47;3.77;;;1.90;;
11228;SDS011;5671;47.936;8.716;2023-07-20T13:57:14;3.70;;;2.17;;
11228;SDS011;5671;47.936;8.716;2023-07-20T13:59:41;3.00;;;2.07;;
11228;SDS011;5671;47.936;8.716;2023-07-20T14:02:09;2.60;;;1.90;;
11228;SDS011;5671;47.936;8.716;2023-07-20T14:04:37;3.60;;;1.70;;
11228;SDS011;5671;47.936;8.716;2023-07-20T14:07:04;2.37;;;1.97;;
11228;SDS011;5671;47.936;8.716;2023-07-20T14:09:31;3.53;;;2.20;;
11228;SDS011;5671;47.936;8.716;2023-07-20T14:11:58;10.60;;;2.43;;
11228;SDS011;5671;47.936;8.716;2023-07-20T14:14:24;3.97;;;1.50;;
11228;SDS011;5671;47.936;8.716;2023-07-20T14:16:50;5.50;;;2.00;;
11228;SDS011;5671;47.936;8.716;2023-07-20T14:19:18;3.90;;;1.67;;
11228;SDS011;5671;47.936;8.716;2023-07-20T14:21:45;3.37;;;2.00;;
11228;SDS011;5671;47.936;8.716;2023-07-20T14:24:12;2.87;;;1.73;;
11228;SDS011;5671;47.936;8.716;2023-07-20T14:26:39;6.13;;;2.00;;
11228;SDS011;5671;47.936;8.716;2023-07-20T14:29:06;1.53;;;1.43;;
11228;SDS011;5671;47.936;8.716;2023-07-20T14:31:33;2.83;;;1.73;;
11228;SDS011;5671;47.936;8.716;2023-07-20T14:33:59;2.03;;;1.70;;
11228;SDS011;5671;47.936;8.716;2023-07-20T14:36:28;8.63;;;2.10;;
11228;SDS011;5671;47.936;8.716;2023-07-20T14:38:54;2.17;;;1.80;;
11228;SDS011;5671;47.936;8.716;2023-07-20T14:41:21;2.77;;;1.70;;
11228;SDS011;5671;47.936;8.716;2023-07-20T14:43:48;3.53;;;1.90;;
11228;SDS011;5671;47.936;8.716;2023-07-20T14:46:15;2.77;;;1.77;;
11228;SDS011;5671;47.936;8.716;2023-07-20T14:48:42;3.97;;;2.10;;
11228;SDS011;5671;47.936;8.716;2023-07-20T14:51:08;2.33;;;1.43;;
11228;SDS011;5671;47.936;8.716;2023-07-20T14:53:37;2.80;;;1.80;;
11228;SDS011;5671;47.936;8.716;2023-07-20T14:56:03;2.33;;;1.87;;
11228;SDS011;5671;47.936;8.716;2023-07-20T14:58:31;1.90;;;1.77;;
11228;SDS011;5671;47.936;8.716;2023-07-20T15:00:58;4.60;;;1.83;;
11228;SDS011;5671;47.936;8.716;2023-07-20T15:03:25;5.20;;;1.70;;
11228;SDS011;5671;47.936;8.716;2023-07-20T15:05:51;3.30;;;1.70;;
11228;SDS011;5671;47.936;8.716;2023-07-20T15:08:18;3.43;;;1.80;;
11228;SDS011;5671;47.936;8.716;2023-07-20T15:10:46;6.00;;;1.73;;
11228;SDS011;5671;47.936;8.716;2023-07-20T15:13:14;3.30;;;1.80;;
11228;SDS011;5671;47.936;8.716;2023-07-20T15:15:41;5.93;;;2.00;;
11228;SDS011;5671;47.936;8.716;2023-07-20T15:18:08;5.20;;;1.83;;
11228;SDS011;5671;47.936;8.716;2023-07-20T15:20:35;2.67;;;1.60;;
11228;SDS011;5671;47.936;8.716;2023-07-20T15:23:02;3.07;;;1.57;;
11228;SDS011;5671;47.936;8.716;2023-07-20T15:25:27;2.20;;;1.70;;
11228;SDS011;5671;47.936;8.716;2023-07-20T15:27:56;4.60;;;1.63;;
11228;SDS011;5671;47.936;8.716;2023-07-20T15:30:23;1.80;;;1.70;;
11228;SDS011;5671;47.936;8.716;2023-07-20T15:32:49;4.53;;;1.67;;
11228;SDS011;5671;47.936;8.716;2023-07-20T15:35:16;3.87;;;1.70;;
11228;SDS011;5671;47.936;8.716;2023-07-20T15:37:43;3.40;;;1.80;;
11228;SDS011;5671;47.936;8.716;2023-07-20T15:40:10;1.57;;;1.47;;
11228;SDS011;5671;47.936;8.716;2023-07-20T15:42:38;1.87;;;1.53;;
11228;SDS011;5671;47.936;8.716;2023-07-20T15:45:07;3.70;;;1.87;;
11228;SDS011;5671;47.936;8.716;2023-07-20T15:47:35;26.33;;;4.73;;
11228;SDS011;5671;47.936;8.716;2023-07-20T15:50:02;4.80;;;1.67;;
11228;SDS011;5671;47.936;8.716;2023-07-20T15:52:29;2.60;;;2.00;;
11228;SDS011;5671;47.936;8.716;2023-07-20T15:54:55;2.93;;;1.83;;
11228;SDS011;5671;47.936;8.716;2023-07-20T15:57:22;2.20;;;1.50;;
11228;SDS011;5671;47.936;8.716;2023-07-20T15:59:49;3.77;;;1.73;;
11228;SDS011;5671;47.936;8.716;2023-07-20T16:02:17;1.70;;;1.60;;
11228;SDS011;5671;47.936;8.716;2023-07-20T16:04:44;2.37;;;1.60;;
11228;SDS011;5671;47.936;8.716;2023-07-20T16:07:11;4.13;;;2.00;;
11228;SDS011;5671;47.936;8.716;2023-07-20T16:09:38;2.77;;;1.70;;
11228;SDS011;5671;47.936;8.716;2023-07-20T16:12:05;12.13;;;1.63;;
11228;SDS011;5671;47.936;8.716;2023-07-20T16:14:33;2.13;;;1.60;;
11228;SDS011;5671;47.936;8.716;2023-07-20T16:17:00;3.20;;;1.87;;
11228;SDS011;5671;47.936;8.716;2023-07-20T16:19:29;4.57;;;1.80;;
11228;SDS011;5671;47.936;8.716;2023-07-20T16:21:56;3.33;;;1.60;;
11228;SDS011;5671;47.936;8.716;2023-07-20T16:24:23;2.57;;;1.60;;
11228;SDS011;5671;47.936;8.716;2023-07-20T16:26:49;5.47;;;2.20;;
11228;SDS011;5671;47.936;8.716;2023-07-20T16:29:16;1.80;;;1.70;;
11228;SDS011;5671;47.936;8.716;2023-07-20T16:31:43;3.40;;;1.43;;
11228;SDS011;5671;47.936;8.716;2023-07-20T16:34:11;3.27;;;2.10;;
11228;SDS011;5671;47.936;8.716;2023-07-20T16:36:39;4.07;;;1.63;;
11228;SDS011;5671;47.936;8.716;2023-07-20T16:39:06;3.33;;;1.60;;
11228;SDS011;5671;47.936;8.716;2023-07-20T16:41:34;3.03;;;1.60;;
11228;SDS011;5671;47.936;8.716;2023-07-20T16:44:02;4.10;;;1.83;;
11228;SDS011;5671;47.936;8.716;2023-07-20T16:46:29;2.03;;;1.77;;
11228;SDS011;5671;47.936;8.716;2023-07-20T16:48:57;3.93;;;1.97;;
11228;SDS011;5671;47.936;8.716;2023-07-20T16:51:29;2.60;;;2.10;;
11228;SDS011;5671;47.936;8.716;2023-07-20T16:53:58;4.87;;;1.93;;
11228;SDS011;5671;47.936;8.716;2023-07-20T16:56:25;3.67;;;1.63;;
11228;SDS011;5671;47.936;8.716;2023-07-20T16:58:52;2.73;;;1.70;;
11228;SDS011;5671;47.936;8.716;2023-07-20T17:01:19;2.57;;;1.70;;
11228;SDS011;5671;47.936;8.716;2023-07-20T17:03:46;2.33;;;1.70;;
11228;SDS011;5671;47.936;8.716;2023-07-20T17:06:14;3.70;;;1.73;;
11228;SDS011;5671;47.936;8.716;2023-07-20T17:08:41;5.93;;;1.70;;
11228;SDS011;5671;47.936;8.716;2023-07-20T17:11:09;2.73;;;1.90;;
11228;SDS011;5671;47.936;8.716;2023-07-20T17:13:36;5.93;;;2.03;;
11228;SDS011;5671;47.936;8.716;2023-07-20T17:16:04;3.20;;;1.63;;
11228;SDS011;5671;47.936;8.716;2023-07-20T17:18:31;2.70;;;2.00;;
11228;SDS011;5671;47.936;8.716;2023-07-20T17:20:58;2.00;;;1.83;;
11228;SDS011;5671;47.936;8.716;2023-07-20T17:26:17;4.87;;;1.90;;
11228;SDS011;5671;47.936;8.716;2023-07-20T17:28:44;4.60;;;2.10;;
11228;SDS011;5671;47.936;8.716;2023-07-20T17:31:11;2.60;;;1.80;;
11228;SDS011;5671;47.936;8.716;2023-07-20T17:33:38;2.10;;;1.83;;
11228;SDS011;5671;47.936;8.716;2023-07-20T17:36:07;4.23;;;1.90;;
11228;SDS011;5671;47.936;8.716;2023-07-20T17:38:35;3.93;;;2.00;;
11228;SDS011;5671;47.936;8.716;2023-07-20T17:41:01;2.97;;;1.60;;
11228;SDS011;5671;47.936;8.716;2023-07-20T17:43:30;4.77;;;1.97;;
11228;SDS011;5671;47.936;8.716;2023-07-20T17:49:15;2.70;;;1.77;;
11228;SDS011;5671;47.936;8.716;2023-07-20T17:51:41;2.07;;;1.97;;
11228;SDS011;5671;47.936;8.716;2023-07-20T17:54:08;2.67;;;1.80;;
11228;SDS011;5671;47.936;8.716;2023-07-20T17:56:35;2.00;;;1.80;;
11228;SDS011;5671;47.936;8.716;2023-07-20T17:59:04;2.50;;;1.90;;
11228;SDS011;5671;47.936;8.716;2023-07-20T18:01:30;5.17;;;2.67;;
11228;SDS011;5671;47.936;8.716;2023-07-20T18:03:57;3.73;;;1.83;;
11228;SDS011;5671;47.936;8.716;2023-07-20T18:06:24;3.27;;;1.83;;
11228;SDS011;5671;47.936;8.716;2023-07-20T18:08:51;3.50;;;2.17;;
11228;SDS011;5671;47.936;8.716;2023-07-20T18:11:18;2.63;;;2.10;;
11228;SDS011;5671;47.936;8.716;2023-07-20T18:13:45;3.77;;;2.20;;
11228;SDS011;5671;47.936;8.716;2023-07-20T18:16:13;2.37;;;2.00;;
11228;SDS011;5671;47.936;8.716;2023-07-20T18:18:40;1.60;;;1.50;;
11228;SDS011;5671;47.936;8.716;2023-07-20T18:21:07;2.87;;;2.10;;
11228;SDS011;5671;47.936;8.716;2023-07-20T18:23:34;2.03;;;1.80;;
11228;SDS011;5671;47.936;8.716;2023-07-20T18:26:01;2.17;;;1.90;;
11228;SDS011;5671;47.936;8.716;2023-07-20T18:28:28;2.23;;;1.80;;
11228;SDS011;5671;47.936;8.716;2023-07-20T18:30:55;2.00;;;1.87;;
11228;SDS011;5671;47.936;8.716;2023-07-20T18:33:23;4.10;;;1.80;;
11228;SDS011;5671;47.936;8.716;2023-07-20T18:35:52;3.33;;;1.73;;
11228;SDS011;5671;47.936;8.716;2023-07-20T18:38:19;3.83;;;2.07;;
11228;SDS011;5671;47.936;8.716;2023-07-20T18:40:46;3.10;;;2.40;;
11228;SDS011;5671;47.936;8.716;2023-07-20T18:43:13;3.23;;;2.07;;
11228;SDS011;5671;47.936;8.716;2023-07-20T18:45:40;1.93;;;1.70;;
11228;SDS011;5671;47.936;8.716;2023-07-20T18:48:08;5.20;;;1.90;;
11228;SDS011;5671;47.936;8.716;2023-07-20T18:50:36;4.10;;;2.07;;
11228;SDS011;5671;47.936;8.716;2023-07-20T18:53:09;2.57;;;1.80;;
11228;SDS011;5671;47.936;8.716;2023-07-20T18:55:37;4.17;;;2.00;;
11228;SDS011;5671;47.936;8.716;2023-07-20T18:58:04;5.03;;;2.03;;
11228;SDS011;5671;47.936;8.716;2023-07-20T19:00:31;1.73;;;1.63;;
11228;SDS011;5671;47.936;8.716;2023-07-20T19:02:58;2.50;;;1.93;;
11228;SDS011;5671;47.936;8.716;2023-07-20T19:05:25;2.17;;;1.70;;
11228;SDS011;5671;47.936;8.716;2023-07-20T19:07:53;2.40;;;1.90;;
11228;SDS011;5671;47.936;8.716;2023-07-20T19:10:22;2.60;;;2.13;;
11228;SDS011;5671;47.936;8.716;2023-07-20T19:12:51;11.33;;;2.20;;
11228;SDS011;5671;47.936;8.716;2023-07-20T19:15:18;3.53;;;1.90;;
11228;SDS011;5671;47.936;8.716;2023-07-20T19:17:48;2.90;;;1.80;;
11228;SDS011;5671;47.936;8.716;2023-07-20T19:20:15;4.07;;;1.90;;
11228;SDS011;5671;47.936;8.716;2023-07-20T19:22:42;2.20;;;1.97;;
11228;SDS011;5671;47.936;8.716;2023-07-20T19:25:11;3.58;;;1.75;;
11228;SDS011;5671;47.936;8.716;2023-07-20T19:27:38;2.50;;;2.00;;
11228;SDS011;5671;47.936;8.716;2023-07-20T19:30:05;5.97;;;2.10;;
11228;SDS011;5671;47.936;8.716;2023-07-20T19:32:33;3.57;;;2.10;;
11228;SDS011;5671;47.936;8.716;2023-07-20T19:35:00;5.17;;;2.10;;
11228;SDS011;5671;47.936;8.716;2023-07-20T19:37:27;2.53;;;1.87;;
11228;SDS011;5671;47.936;8.716;2023-07-20T19:39:54;2.93;;;1.83;;
11228;SDS011;5671;47.936;8.716;2023-07-20T19:42:22;2.20;;;2.00;;
11228;SDS011;5671;47.936;8.716;2023-07-20T19:44:49;2.53;;;1.80;;
11228;SDS011;5671;47.936;8.716;2023-07-20T19:47:16;4.77;;;2.27;;
11228;SDS011;5671;47.936;8.716;2023-07-20T19:49:43;2.80;;;2.40;;
11228;SDS011;5671;47.936;8.716;2023-07-20T19:52:10;6.23;;;2.20;;
11228;SDS011;5671;47.936;8.716;2023-07-20T19:57:37;2.70;;;2.10;;
11228;SDS011;5671;47.936;8.716;2023-07-20T20:00:04;2.53;;;2.33;;
11228;SDS011;5671;47.936;8.716;2023-07-20T20:02:36;7.67;;;2.00;;
11228;SDS011;5671;47.936;8.716;2023-07-20T20:05:04;2.47;;;2.17;;
11228;SDS011;5671;47.936;8.716;2023-07-20T20:07:32;4.43;;;2.40;;
11228;SDS011;5671;47.936;8.716;2023-07-20T20:09:59;2.43;;;2.00;;
11228;SDS011;5671;47.936;8.716;2023-07-20T20:12:26;3.90;;;2.33;;
11228;SDS011;5671;47.936;8.716;2023-07-20T20:14:55;3.40;;;1.87;;
11228;SDS011;5671;47.936;8.716;2023-07-20T20:17:22;3.07;;;2.10;;
11228;SDS011;5671;47.936;8.716;2023-07-20T20:19:49;3.10;;;2.00;;
11228;SDS011;5671;47.936;8.716;2023-07-20T20:22:16;2.37;;;2.03;;
11228;SDS011;5671;47.936;8.716;2023-07-20T20:24:43;4.07;;;2.20;;
11228;SDS011;5671;47.936;8.716;2023-07-20T20:27:10;2.20;;;1.97;;
11228;SDS011;5671;47.936;8.716;2023-07-20T20:29:37;3.23;;;2.33;;
11228;SDS011;5671;47.936;8.716;2023-07-20T20:32:06;3.60;;;1.80;;
11228;SDS011;5671;47.936;8.716;2023-07-20T20:34:34;3.70;;;2.30;;
11228;SDS011;5671;47.936;8.716;2023-07-20T20:37:01;3.67;;;1.90;;
11228;SDS011;5671;47.936;8.716;2023-07-20T20:39:28;3.53;;;2.23;;
11228;SDS011;5671;47.936;8.716;2023-07-20T20:41:56;2.20;;;2.00;;
11228;SDS011;5671;47.936;8.716;2023-07-20T20:44:22;2.90;;;2.20;;
11228;SDS011;5671;47.936;8.716;2023-07-20T20:46:52;2.30;;;2.10;;
11228;SDS011;5671;47.936;8.716;2023-07-20T20:49:27;2.40;;;2.20;;
11228;SDS011;5671;47.936;8.716;2023-07-20T20:51:54;5.33;;;2.20;;
11228;SDS011;5671;47.936;8.716;2023-07-20T20:54:21;3.53;;;2.20;;
11228;SDS011;5671;47.936;8.716;2023-07-20T20:56:47;2.23;;;1.90;;
11228;SDS011;5671;47.936;8.716;2023-07-20T20:59:14;1.93;;;1.83;;
11228;SDS011;5671;47.936;8.716;2023-07-20T21:01:44;4.10;;;2.00;;
11228;SDS011;5671;47.936;8.716;2023-07-20T21:04:12;2.30;;;1.90;;
11228;SDS011;5671;47.936;8.716;2023-07-20T21:06:40;1.90;;;1.43;;
11228;SDS011;5671;47.936;8.716;2023-07-20T21:09:07;2.37;;;2.17;;
11228;SDS011;5671;47.936;8.716;2023-07-20T21:11:34;2.37;;;2.17;;
11228;SDS011;5671;47.936;8.716;2023-07-20T21:14:01;5.57;;;2.20;;